Time;durP1;ratioP1;P1;durP2;ratioP2;P2;SDS_P1;SDS_P2;PMS_P1;PMS_P2;Temp;Humidity;BMP_temperature;BMP_pressure;BME280_temperature;BME280_humidity;BME280_pressure;Samples;Min_cycle;Max_cycle;Signal;HPM_P1;HPM_P2
2021/09/16 00:01:51;;;;;;;8.40;1.58;;;;;;;14.90;76.12;101666.69;4823919;29;20037;-60
2021/09/16 00:04:17;;;;;;;6.53;1.48;;;;;;;14.87;76.28;101677.50;4825147;29;20043;-66
2021/09/16 00:06:42;;;;;;;2.97;1.20;;;;;;;14.81;76.57;101684.00;4826042;29;20130;-61
2021/09/16 00:09:07;;;;;;;4.90;1.17;;;;;;;14.81;76.84;101680.47;4836193;29;20065;-69
2021/09/16 00:11:33;;;;;;;7.97;2.08;;;;;;;14.78;76.86;101683.28;4842227;29;20026;-72
2021/09/16 00:13:58;;;;;;;4.47;1.33;;;;;;;14.77;77.08;101676.22;4842260;29;20440;-68
2021/09/16 00:16:24;;;;;;;5.72;1.70;;;;;;;14.74;77.14;101678.13;4842276;29;20452;-60
2021/09/16 00:18:49;;;;;;;4.22;1.55;;;;;;;14.73;77.31;101676.38;4824123;29;20038;-61
2021/09/16 00:21:14;;;;;;;6.15;1.60;;;;;;;14.75;77.32;101684.31;4824144;29;20495;-70
2021/09/16 00:23:40;;;;;;;4.63;1.50;;;;;;;14.74;77.26;101674.56;4824224;29;20034;-66
2021/09/16 00:26:05;;;;;;;7.13;1.60;;;;;;;14.74;77.17;101677.25;4823792;29;20095;-62
2021/09/16 00:28:31;;;;;;;3.97;1.27;;;;;;;14.75;76.68;101677.16;4823195;29;20042;-68
2021/09/16 00:30:56;;;;;;;8.52;1.83;;;;;;;14.78;76.43;101670.81;4823249;29;20065;-63
2021/09/16 00:33:21;;;;;;;5.78;1.63;;;;;;;14.79;76.60;101677.88;4822374;29;20041;-60
2021/09/16 00:35:47;;;;;;;6.05;1.38;;;;;;;14.79;76.47;101669.88;4823539;29;20043;-75
2021/09/16 00:38:12;;;;;;;6.13;1.50;;;;;;;14.82;76.46;101684.84;4826227;29;20171;-58
2021/09/16 00:40:38;;;;;;;3.38;1.38;;;;;;;14.83;76.47;101686.59;4830152;29;20440;-59
2021/09/16 00:43:03;;;;;;;7.65;1.60;;;;;;;14.84;76.20;101688.31;4822923;29;20457;-60
2021/09/16 00:45:29;;;;;;;1.90;1.20;;;;;;;14.95;75.63;101679.78;4836443;29;20134;-59
2021/09/16 00:47:54;;;;;;;10.13;1.90;;;;;;;14.95;75.10;101683.34;4821816;29;20023;-59
2021/09/16 00:50:21;;;;;;;3.28;1.35;;;;;;;14.97;75.34;101688.56;4839069;29;20026;-66
2021/09/16 00:52:48;;;;;;;5.57;1.40;;;;;;;14.99;74.84;101689.38;4841413;29;20117;-61
2021/09/16 00:55:13;;;;;;;4.30;1.40;;;;;;;14.99;74.64;101686.72;4841235;29;20079;-60
2021/09/16 00:57:43;;;;;;;2.50;1.27;;;;;;;15.03;74.39;101685.63;4840307;29;20037;-75
2021/09/16 01:00:09;;;;;;;3.63;1.30;;;;;;;15.06;74.45;101686.31;4830582;29;20083;-74
2021/09/16 01:02:34;;;;;;;3.85;1.42;;;;;;;15.11;74.25;101685.22;4823205;29;20398;-60
2021/09/16 01:05:00;;;;;;;7.70;1.30;;;;;;;15.17;74.16;101687.59;4822743;29;20082;-59
2021/09/16 01:07:25;;;;;;;3.85;1.25;;;;;;;15.19;74.09;101681.22;4823888;29;20429;-75
2021/09/16 01:09:51;;;;;;;5.32;1.27;;;;;;;15.21;74.15;101684.66;4825368;29;20045;-59
2021/09/16 01:12:16;;;;;;;6.68;1.77;;;;;;;15.23;74.10;101687.28;4831529;29;20034;-59
2021/09/16 01:14:44;;;;;;;3.58;1.13;;;;;;;15.27;74.13;101680.84;4841469;29;20038;-69
2021/09/16 01:17:09;;;;;;;4.57;1.17;;;;;;;15.31;74.07;101689.56;4835483;29;20058;-74
2021/09/16 01:19:34;;;;;;;5.05;1.50;;;;;;;15.31;74.35;101695.75;4823859;29;20147;-60
2021/09/16 01:22:00;;;;;;;6.45;1.20;;;;;;;15.34;74.02;101686.72;4824951;29;20034;-71
2021/09/16 01:24:25;;;;;;;6.82;1.45;;;;;;;15.35;73.65;101701.78;4822685;29;20041;-59
2021/09/16 01:26:50;;;;;;;4.25;1.05;;;;;;;15.38;74.01;101706.97;4823334;29;20036;-60
2021/09/16 01:29:16;;;;;;;4.35;1.23;;;;;;;15.30;76.06;101702.00;4823556;29;20105;-59
2021/09/16 01:31:44;;;;;;;5.97;1.67;;;;;;;15.17;77.43;101692.91;4822496;29;20228;-59
2021/09/16 01:34:13;;;;;;;5.28;1.48;;;;;;;15.06;78.22;101696.13;4823022;29;20563;-61
2021/09/16 01:36:41;;;;;;;4.40;1.27;;;;;;;15.02;78.89;101694.53;4823565;29;20022;-60
2021/09/16 01:39:09;;;;;;;4.40;1.30;;;;;;;14.99;80.31;101692.03;4823569;29;20115;-64
2021/09/16 01:41:34;;;;;;;4.53;1.58;;;;;;;14.94;80.79;101686.94;4822508;29;20045;-61
2021/09/16 01:44:00;;;;;;;5.63;1.30;;;;;;;14.87;81.44;101688.16;4823563;29;20361;-61
2021/09/16 01:46:25;;;;;;;3.53;1.45;;;;;;;14.81;82.00;101700.00;4823354;29;20038;-66
2021/09/16 01:48:51;;;;;;;4.18;1.20;;;;;;;14.75;83.00;101693.16;4822768;29;20041;-62
2021/09/16 01:51:16;;;;;;;7.05;1.65;;;;;;;14.70;83.13;101694.34;4822732;29;20106;-59
2021/09/16 01:53:42;;;;;;;4.93;1.40;;;;;;;14.68;82.90;101702.41;4831574;29;20076;-66
2021/09/16 01:56:08;;;;;;;4.35;1.30;;;;;;;14.66;83.81;101695.44;4840231;29;20026;-69
2021/09/16 01:58:33;;;;;;;4.70;1.48;;;;;;;14.63;83.42;101698.19;4840709;29;20038;-62
2021/09/16 02:00:59;;;;;;;5.82;1.48;;;;;;;14.58;83.16;101698.44;4840404;29;20452;-59
2021/09/16 02:03:24;;;;;;;3.28;1.25;;;;;;;14.53;83.87;101695.13;4831432;29;20069;-66
2021/09/16 02:05:50;;;;;;;6.88;1.30;;;;;;;14.58;83.35;101693.09;4810753;29;20057;-71
2021/09/16 02:08:15;;;;;;;5.68;1.60;;;;;;;14.59;83.62;101693.03;4838671;29;20113;-69
2021/09/16 02:10:41;;;;;;;3.55;1.40;;;;;;;14.61;84.09;101698.28;4840521;29;20038;-61
2021/09/16 02:13:07;;;;;;;5.53;1.60;;;;;;;14.60;84.40;101696.53;4840097;29;20607;-72
2021/09/16 02:15:32;;;;;;;2.83;1.30;;;;;;;14.63;84.80;101704.41;4821018;29;20038;-62
2021/09/16 02:17:57;;;;;;;5.72;1.40;;;;;;;14.64;83.92;101703.50;4833092;29;20030;-75
2021/09/16 02:20:22;;;;;;;5.05;1.20;;;;;;;14.62;83.91;101702.66;4840419;29;20042;-62
2021/09/16 02:22:48;;;;;;;5.20;1.60;;;;;;;14.59;84.19;101695.69;4840398;29;20030;-60
2021/09/16 02:25:13;;;;;;;4.47;1.23;;;;;;;14.58;84.43;101693.09;4826444;29;20049;-73
2021/09/16 02:27:39;;;;;;;6.20;1.67;;;;;;;14.55;84.23;101696.78;4824875;29;20033;-60
2021/09/16 02:30:05;;;;;;;5.65;1.10;;;;;;;14.49;84.27;101701.50;4840912;29;20074;-73
2021/09/16 02:32:31;;;;;;;5.55;1.35;;;;;;;14.43;84.85;101708.00;4840655;29;20392;-73
2021/09/16 02:34:56;;;;;;;5.60;1.50;;;;;;;14.38;84.68;101710.03;4830850;29;20037;-65
2021/09/16 02:37:22;;;;;;;7.20;1.60;;;;;;;14.33;84.87;101704.06;4822666;29;20031;-67
2021/09/16 02:39:48;;;;;;;6.47;1.40;;;;;;;14.28;84.81;101700.75;4836813;29;20034;-61
2021/09/16 02:42:13;;;;;;;5.13;1.20;;;;;;;14.25;84.98;101704.41;4840046;29;20475;-61
2021/09/16 02:44:39;;;;;;;6.85;1.65;;;;;;;14.24;84.48;101700.88;4835245;29;20039;-75
2021/09/16 02:47:04;;;;;;;5.65;1.38;;;;;;;14.23;84.58;101701.81;4814302;29;20050;-69
2021/09/16 02:49:29;;;;;;;6.03;1.40;;;;;;;14.23;83.79;101704.50;4819069;29;20405;-74
2021/09/16 02:51:55;;;;;;;3.80;1.25;;;;;;;14.28;83.40;101706.06;4841233;29;20421;-76
2021/09/16 02:54:20;;;;;;;6.13;1.67;;;;;;;14.35;83.03;101707.53;4840445;29;20105;-60
2021/09/16 02:56:45;;;;;;;2.42;1.17;;;;;;;14.43;82.49;101703.53;4821272;29;20398;-62
2021/09/16 02:59:11;;;;;;;5.45;1.30;;;;;;;14.49;82.06;101702.41;4822638;29;20121;-60
2021/09/16 03:01:36;;;;;;;5.45;1.48;;;;;;;14.55;81.81;101711.88;4841561;29;20037;-62
2021/09/16 03:04:01;;;;;;;6.72;1.10;;;;;;;14.60;81.12;101707.19;4844522;29;20061;-71
2021/09/16 03:06:27;;;;;;;7.88;1.35;;;;;;;14.64;80.65;101714.16;4815923;29;20050;-59
2021/09/16 03:08:52;;;;;;;5.57;1.48;;;;;;;14.67;80.05;101706.00;4807866;29;20057;-59
2021/09/16 03:11:17;;;;;;;4.72;1.23;;;;;;;14.68;80.39;101706.84;4818682;29;20044;-59
2021/09/16 03:13:43;;;;;;;1.83;0.90;;;;;;;14.67;79.66;101713.16;4824306;29;20472;-73
2021/09/16 03:16:08;;;;;;;3.97;1.10;;;;;;;14.60;79.35;101720.53;4820520;29;20047;-69
2021/09/16 03:18:34;;;;;;;3.33;0.98;;;;;;;14.53;79.62;101719.97;4800952;29;20027;-60
2021/09/16 03:20:59;;;;;;;5.90;1.30;;;;;;;14.47;79.69;101725.56;4796929;29;20174;-71
2021/09/16 03:23:24;;;;;;;4.95;1.08;;;;;;;14.45;79.98;101726.59;4824581;29;20034;-62
2021/09/16 03:25:50;;;;;;;6.18;1.35;;;;;;;14.42;79.76;101717.81;4825955;29;20030;-72
2021/09/16 03:28:15;;;;;;;2.97;0.82;;;;;;;14.41;79.74;101725.84;4807520;29;20035;-60
2021/09/16 03:30:40;;;;;;;5.22;1.33;;;;;;;14.36;79.90;101728.75;4807574;29;20115;-60
2021/09/16 03:33:06;;;;;;;3.80;0.90;;;;;;;14.28;80.00;101732.72;4821602;29;20058;-68
2021/09/16 03:35:31;;;;;;;5.22;1.10;;;;;;;14.20;80.05;101725.91;4825378;29;20361;-65
2021/09/16 03:37:56;;;;;;;5.15;1.05;;;;;;;14.16;80.66;101737.66;4812498;29;20472;-60
2021/09/16 03:40:22;;;;;;;4.93;1.27;;;;;;;14.13;80.70;101724.50;4807503;29;20031;-71
2021/09/16 03:42:50;;;;;;;4.47;1.08;;;;;;;14.16;80.57;101731.47;4814899;29;20035;-74
2021/09/16 03:45:16;;;;;;;4.57;1.33;;;;;;;14.17;80.70;101726.06;4825109;29;20026;-71
2021/09/16 03:47:41;;;;;;;3.78;1.30;;;;;;;14.20;80.47;101727.72;4816042;29;20027;-65
2021/09/16 03:50:07;;;;;;;6.55;1.38;;;;;;;14.21;80.42;101737.47;4796315;29;20110;-64
2021/09/16 03:52:32;;;;;;;6.13;1.73;;;;;;;14.19;80.22;101734.84;4791340;29;20031;-59
2021/09/16 03:54:57;;;;;;;4.35;1.35;;;;;;;14.17;80.49;101739.41;4825220;29;20050;-59
2021/09/16 03:57:22;;;;;;;5.90;1.52;;;;;;;14.19;80.28;101734.00;4821483;29;20038;-63
2021/09/16 03:59:48;;;;;;;6.18;1.60;;;;;;;14.22;80.02;101734.72;4806465;29;20042;-60
2021/09/16 04:02:13;;;;;;;6.40;1.45;;;;;;;14.28;79.77;101730.03;4807467;29;20034;-66
2021/09/16 04:04:38;;;;;;;4.28;1.23;;;;;;;14.34;79.53;101732.44;4820558;29;20458;-74
2021/09/16 04:07:04;;;;;;;5.82;1.30;;;;;;;14.42;79.51;101738.25;4842207;29;20508;-68
2021/09/16 04:09:29;;;;;;;5.10;1.40;;;;;;;14.46;79.25;101734.50;4828353;29;20045;-64
2021/09/16 04:11:55;;;;;;;4.22;1.33;;;;;;;14.48;79.26;101734.44;4824885;29;20041;-74
2021/09/16 04:14:20;;;;;;;3.95;1.27;;;;;;;14.51;78.92;101743.13;4830414;29;20033;-60
2021/09/16 04:16:46;;;;;;;5.85;1.40;;;;;;;14.54;79.02;101740.34;4842562;29;20030;-59
2021/09/16 04:19:11;;;;;;;2.88;1.17;;;;;;;14.57;78.63;101747.34;4835229;29;20086;-72
2021/09/16 04:21:36;;;;;;;4.55;1.63;;;;;;;14.61;78.45;101742.72;4824090;29;20057;-63
2021/09/16 04:24:02;;;;;;;6.00;1.73;;;;;;;14.63;77.94;101754.16;4824749;29;20384;-60
2021/09/16 04:26:27;;;;;;;5.53;1.38;;;;;;;14.69;78.10;101748.59;4840938;29;20487;-61
2021/09/16 04:28:53;;;;;;;5.47;1.40;;;;;;;14.77;77.70;101749.09;4838137;29;20049;-75
2021/09/16 04:31:18;;;;;;;5.05;1.45;;;;;;;14.81;77.65;101740.00;4823262;29;20041;-75
2021/09/16 04:33:43;;;;;;;2.92;1.25;;;;;;;14.87;77.49;101750.38;4823458;29;20089;-62
2021/09/16 04:36:08;;;;;;;4.50;1.48;;;;;;;14.90;77.56;101747.53;4833312;29;20408;-63
2021/09/16 04:38:34;;;;;;;8.90;1.60;;;;;;;14.93;77.43;101749.19;4842449;29;20100;-76
2021/09/16 04:40:59;;;;;;;6.53;1.33;;;;;;;14.97;77.46;101750.78;4825900;29;20034;-60
2021/09/16 04:43:25;;;;;;;5.57;1.30;;;;;;;14.97;77.59;101742.78;4824439;29;20456;-59
2021/09/16 04:45:50;;;;;;;3.17;1.45;;;;;;;14.97;77.42;101741.91;4825713;29;20411;-59
2021/09/16 04:48:15;;;;;;;3.67;1.17;;;;;;;14.96;77.47;101743.75;4841897;29;20052;-59
2021/09/16 04:50:41;;;;;;;3.40;1.40;;;;;;;14.89;77.39;101742.28;4830656;29;20023;-59
2021/09/16 04:53:07;;;;;;;6.45;1.52;;;;;;;14.84;77.19;101753.19;4823280;29;20030;-60
2021/09/16 04:55:32;;;;;;;4.72;1.40;;;;;;;14.83;77.11;101750.59;4822263;29;20137;-59
2021/09/16 04:57:57;;;;;;;3.53;1.38;;;;;;;14.82;77.52;101763.06;4833838;29;20424;-61
2021/09/16 05:00:23;;;;;;;5.68;1.45;;;;;;;14.81;77.33;101742.66;4833753;29;20088;-64
2021/09/16 05:02:48;;;;;;;4.70;1.40;;;;;;;14.81;77.44;101750.66;4814044;29;20023;-59
2021/09/16 05:05:14;;;;;;;4.57;1.27;;;;;;;14.84;77.67;101747.84;4801951;29;20058;-61
2021/09/16 05:07:39;;;;;;;5.43;1.60;;;;;;;14.85;77.49;101749.56;4813495;29;20064;-60
2021/09/16 05:10:05;;;;;;;6.10;1.50;;;;;;;14.84;77.27;101747.84;4827679;29;20108;-57
2021/09/16 05:12:31;;;;;;;7.72;1.45;;;;;;;14.88;77.15;101765.41;4809651;29;20038;-61
2021/09/16 05:14:57;;;;;;;6.57;1.50;;;;;;;14.93;76.62;101748.34;4820925;29;20095;-61
2021/09/16 05:17:24;;;;;;;6.72;1.40;;;;;;;14.98;76.10;101757.84;4820080;29;20041;-58
2021/09/16 05:19:50;;;;;;;4.20;1.45;;;;;;;15.01;76.46;101762.16;4837877;29;20090;-55
2021/09/16 05:22:16;;;;;;;4.60;1.65;;;;;;;15.02;75.89;101756.75;4829057;29;20046;-58
2021/09/16 05:24:41;;;;;;;4.80;1.75;;;;;;;15.06;75.84;101757.47;4819261;29;20114;-57
2021/09/16 05:27:07;;;;;;;4.30;1.63;;;;;;;15.10;76.04;101760.84;4821632;29;20022;-59
2021/09/16 05:29:32;;;;;;;4.88;1.67;;;;;;;15.11;76.08;101766.09;4804007;29;20034;-59
2021/09/16 05:31:58;;;;;;;3.95;1.23;;;;;;;15.13;76.24;101760.69;4818631;29;20478;-58
2021/09/16 05:34:24;;;;;;;5.30;1.67;;;;;;;15.11;76.33;101760.78;4824512;29;20129;-60
2021/09/16 05:36:49;;;;;;;5.53;1.73;;;;;;;15.12;76.45;101765.16;4838511;29;20412;-58
2021/09/16 05:39:15;;;;;;;4.85;1.40;;;;;;;15.14;76.76;101771.31;4832356;29;20113;-60
2021/09/16 05:41:40;;;;;;;5.93;1.65;;;;;;;15.14;76.55;101775.75;4820871;29;20106;-60
2021/09/16 05:44:06;;;;;;;6.15;1.90;;;;;;;15.13;77.23;101774.03;4821751;29;20144;-60
2021/09/16 05:46:33;;;;;;;7.70;1.67;;;;;;;15.12;77.17;101781.19;4827457;29;20037;-60
2021/09/16 05:48:58;;;;;;;11.77;1.85;;;;;;;15.08;77.22;101793.78;4819347;29;20049;-72
2021/09/16 05:51:24;;;;;;;4.95;1.60;;;;;;;15.06;77.31;101787.69;4820296;29;20068;-65
2021/09/16 05:53:50;;;;;;;5.72;1.63;;;;;;;15.04;77.31;101791.38;4819808;29;20053;-59
2021/09/16 05:56:15;;;;;;;8.77;1.85;;;;;;;14.96;78.02;101788.19;4833054;29;20038;-62
2021/09/16 05:58:41;;;;;;;7.88;2.10;;;;;;;14.87;78.51;101793.03;4838508;29;20602;-59
2021/09/16 06:01:07;;;;;;;4.47;1.50;;;;;;;14.82;78.79;101796.84;4830354;29;20034;-67
2021/09/16 06:03:33;;;;;;;11.00;1.98;;;;;;;14.77;79.06;101798.88;4819198;29;20026;-63
2021/09/16 06:05:58;;;;;;;4.78;1.65;;;;;;;14.69;79.30;101794.78;4829744;29;20060;-61
2021/09/16 06:08:24;;;;;;;5.43;2.05;;;;;;;14.66;79.36;101794.91;4836845;29;20059;-60
2021/09/16 06:10:49;;;;;;;6.82;1.90;;;;;;;14.65;79.39;101798.50;4820825;29;20038;-58
2021/09/16 06:13:15;;;;;;;7.50;2.70;;;;;;;14.65;79.28;101795.00;4828523;29;20106;-72
2021/09/16 06:15:40;;;;;;;6.43;2.17;;;;;;;14.66;79.32;101799.38;4819731;29;20054;-60
2021/09/16 06:18:06;;;;;;;7.50;2.03;;;;;;;14.68;78.95;101809.03;4819594;29;20337;-67
2021/09/16 06:20:32;;;;;;;7.60;1.90;;;;;;;14.69;78.99;101808.13;4820683;29;20065;-74
2021/09/16 06:22:57;;;;;;;7.03;2.25;;;;;;;14.74;78.68;101813.22;4820670;29;20033;-59
2021/09/16 06:25:23;;;;;;;8.40;1.77;;;;;;;14.76;78.60;101808.69;4814281;29;20319;-57
2021/09/16 06:27:48;;;;;;;3.22;1.50;;;;;;;14.76;78.43;101814.00;4819772;29;20157;-66
2021/09/16 06:30:14;;;;;;;4.03;1.48;;;;;;;14.81;78.32;101814.66;4820113;29;20081;-63
2021/09/16 06:32:44;;;;;;;4.40;1.50;;;;;;;14.85;77.79;101807.38;4835494;29;20045;-59
2021/09/16 06:35:09;;;;;;;5.30;1.73;;;;;;;14.88;77.66;101810.75;4837821;29;20026;-68
2021/09/16 06:37:35;;;;;;;4.22;1.77;;;;;;;14.93;77.57;101815.88;4841537;29;20030;-62
2021/09/16 06:40:00;;;;;;;5.68;1.77;;;;;;;14.97;77.22;101817.44;4840715;29;20086;-60
2021/09/16 06:42:26;;;;;;;4.75;1.70;;;;;;;14.98;77.56;101811.19;4823593;29;20388;-58
2021/09/16 06:44:52;;;;;;;8.57;2.10;;;;;;;15.02;77.42;101811.91;4823122;29;20038;-57
2021/09/16 06:47:17;;;;;;;4.93;1.80;;;;;;;15.06;76.94;101824.16;4837920;29;20089;-68
2021/09/16 06:49:46;;;;;;;9.30;1.85;;;;;;;15.11;76.79;101827.47;4841967;29;20034;-67
2021/09/16 06:52:16;;;;;;;3.65;1.35;;;;;;;15.16;76.75;101829.91;4841508;29;20034;-64
2021/09/16 06:54:43;;;;;;;6.22;1.70;;;;;;;15.16;76.87;101836.09;4830729;29;20032;-69
2021/09/16 06:57:09;;;;;;;5.93;1.70;;;;;;;15.19;76.63;101824.41;4825329;29;20030;-59
2021/09/16 06:59:34;;;;;;;8.90;1.75;;;;;;;15.29;76.45;101828.38;4817805;29;20149;-60
2021/09/16 07:02:00;;;;;;;3.88;1.80;;;;;;;15.33;75.51;101821.97;4820847;29;20101;-65
2021/09/16 07:04:25;;;;;;;6.40;1.80;;;;;;;15.37;75.29;101825.31;4822764;29;20034;-62
2021/09/16 07:06:51;;;;;;;3.58;1.55;;;;;;;15.43;75.13;101825.03;4841728;29;20364;-61
2021/09/16 07:09:16;;;;;;;6.63;1.80;;;;;;;15.47;74.81;101817.72;4840204;29;20216;-59
2021/09/16 07:11:42;;;;;;;6.13;1.90;;;;;;;15.51;74.64;101820.19;4835215;29;20022;-59
2021/09/16 07:14:07;;;;;;;8.15;2.15;;;;;;;15.57;74.63;101829.69;4822600;29;20026;-59
2021/09/16 07:16:33;;;;;;;3.58;1.63;;;;;;;15.62;73.94;101830.31;4833295;29;20504;-61
2021/09/16 07:18:58;;;;;;;3.78;1.42;;;;;;;15.65;73.54;101827.50;4837127;29;20037;-65
2021/09/16 07:21:24;;;;;;;7.60;1.73;;;;;;;15.68;73.45;101829.16;4840259;29;20037;-64
2021/09/16 07:23:49;;;;;;;4.40;1.73;;;;;;;15.74;73.60;101834.16;4823870;29;20034;-58
2021/09/16 07:26:15;;;;;;;8.68;1.70;;;;;;;15.78;72.99;101834.88;4822041;29;20157;-58
2021/09/16 07:28:40;;;;;;;5.32;1.52;;;;;;;15.84;72.63;101829.25;4824965;29;20045;-60
2021/09/16 07:31:06;;;;;;;5.20;1.88;;;;;;;15.87;72.99;101829.13;4840049;29;20102;-59
2021/09/16 07:33:32;;;;;;;5.63;1.58;;;;;;;15.98;73.65;101831.22;4827891;29;20030;-69
2021/09/16 07:35:58;;;;;;;5.57;1.60;;;;;;;16.26;73.21;101843.13;4816203;29;20468;-60
2021/09/16 07:38:24;;;;;;;4.93;1.35;;;;;;;16.50;71.82;101835.63;4837101;29;20061;-59
2021/09/16 07:40:50;;;;;;;2.88;1.35;;;;;;;16.74;70.76;101846.78;4839179;29;20038;-59
2021/09/16 07:43:15;;;;;;;2.88;1.40;;;;;;;16.91;69.07;101845.88;4839296;29;20045;-59
2021/09/16 07:45:41;;;;;;;3.17;1.58;;;;;;;16.98;68.55;101847.28;4804639;29;20046;-65
2021/09/16 07:48:07;;;;;;;3.13;1.50;;;;;;;16.91;68.58;101848.56;4802486;29;20031;-72
2021/09/16 07:50:33;;;;;;;3.80;1.42;;;;;;;16.82;67.65;101851.72;4803389;29;20102;-73
2021/09/16 07:52:59;;;;;;;7.20;1.95;;;;;;;16.69;68.51;101844.34;4820030;29;20037;-72
2021/09/16 07:55:25;;;;;;;5.13;1.90;;;;;;;16.65;68.86;101850.81;4804720;29;20043;-71
2021/09/16 07:57:50;;;;;;;6.18;1.58;;;;;;;16.70;69.66;101848.75;4803310;29;20042;-63
2021/09/16 08:00:16;;;;;;;4.65;1.38;;;;;;;16.81;69.99;101858.88;4803265;29;20061;-69
2021/09/16 08:02:45;;;;;;;4.05;1.42;;;;;;;17.08;68.68;101844.06;4819281;29;20045;-70
2021/09/16 08:05:10;;;;;;;3.63;1.17;;;;;;;17.30;67.96;101849.94;4803278;29;20138;-70
2021/09/16 08:07:36;;;;;;;4.13;1.38;;;;;;;17.51;66.85;101853.19;4803134;29;20113;-71
2021/09/16 08:10:02;;;;;;;4.13;1.40;;;;;;;17.58;67.39;101852.84;4803057;29;20386;-72
2021/09/16 08:12:27;;;;;;;5.55;1.50;;;;;;;17.46;66.42;101865.13;4818143;29;20157;-70
2021/09/16 08:14:52;;;;;;;4.85;1.40;;;;;;;17.21;66.21;101858.47;4821400;29;20022;-68
2021/09/16 08:17:18;;;;;;;4.45;1.40;;;;;;;17.14;67.31;101865.16;4820598;29;20314;-68
2021/09/16 08:19:43;;;;;;;7.95;1.45;;;;;;;17.14;67.31;101867.81;4830217;29;20038;-71
2021/09/16 08:22:09;;;;;;;4.15;1.60;;;;;;;17.27;67.47;101871.50;4826382;29;20115;-69
2021/09/16 08:24:36;;;;;;;5.65;1.50;;;;;;;17.36;67.08;101875.50;4819001;29;20069;-71
2021/09/16 08:27:01;;;;;;;7.15;1.60;;;;;;;17.58;66.41;101876.94;4820872;29;20472;-71
2021/09/16 08:29:27;;;;;;;5.15;1.70;;;;;;;17.69;65.94;101871.81;4820833;29;20026;-71
2021/09/16 08:31:52;;;;;;;4.65;1.60;;;;;;;17.82;65.42;101870.13;4820267;29;20338;-69
2021/09/16 08:34:18;;;;;;;7.95;1.80;;;;;;;17.90;65.79;101872.34;4819667;29;20118;-69
2021/09/16 08:36:43;;;;;;;4.47;1.70;;;;;;;17.96;64.92;101872.03;4820612;29;20030;-71
2021/09/16 08:39:09;;;;;;;5.57;1.70;;;;;;;18.03;65.89;101880.59;4817008;29;20058;-65
2021/09/16 08:41:36;;;;;;;3.50;1.48;;;;;;;18.29;64.50;101883.50;4814083;29;20035;-66
2021/09/16 08:44:03;;;;;;;3.95;1.40;;;;;;;18.63;63.59;101878.72;4814960;29;20138;-69
2021/09/16 08:46:28;;;;;;;3.63;1.50;;;;;;;18.60;63.37;101892.34;4823035;29;20046;-70
2021/09/16 08:48:54;;;;;;;2.88;1.48;;;;;;;18.40;63.18;101896.25;4823519;29;20114;-63
2021/09/16 08:51:20;;;;;;;4.60;1.17;;;;;;;18.18;64.75;101898.41;4829835;29;20041;-62
2021/09/16 08:53:47;;;;;;;4.07;1.40;;;;;;;18.26;63.78;101897.06;4820544;29;20072;-67
2021/09/16 08:56:13;;;;;;;2.65;1.45;;;;;;;18.42;63.19;101905.06;4833174;29;20032;-69
2021/09/16 08:58:39;;;;;;;6.53;1.38;;;;;;;18.60;62.30;101903.91;4824222;29;20041;-70
2021/09/16 09:01:05;;;;;;;3.65;1.27;;;;;;;18.46;63.34;101902.09;4822965;29;20038;-64
2021/09/16 09:03:30;;;;;;;5.22;2.50;;;;;;;18.59;62.52;101899.50;4840221;29;20057;-69
2021/09/16 09:05:56;;;;;;;4.28;1.70;;;;;;;18.99;61.03;101894.38;4833477;29;20054;-68
2021/09/16 09:08:23;;;;;;;1.83;1.15;;;;;;;19.84;58.95;101897.88;4810598;29;20035;-62
2021/09/16 09:10:53;;;;;;;3.00;1.45;;;;;;;20.61;55.65;101896.16;4821895;29;20065;-67
2021/09/16 09:13:34;;;;;;;3.53;1.55;;;;;;;20.77;55.25;101898.63;4837636;29;20037;-68
2021/09/16 09:16:04;;;;;;;4.28;1.50;;;;;;;21.76;52.97;101899.53;4820878;29;20037;-68
2021/09/16 09:18:50;;;;;;;4.85;1.50;;;;;;;22.38;51.06;101902.06;4831440;29;20503;-70
2021/09/16 09:21:36;;;;;;;2.72;1.52;;;;;;;22.45;50.38;101903.28;5067584;27;20383;-70
2021/09/16 09:24:01;;;;;;;6.82;1.10;;;;;;;23.35;49.05;101885.31;5066310;28;20043;-71
2021/09/16 09:26:33;;;;;;;2.20;1.23;;;;;;;23.52;47.15;101892.88;5067289;28;20545;-67
2021/09/16 09:29:08;;;;;;;4.78;1.88;;;;;;;23.54;47.91;101892.75;5067120;28;20100;-67
2021/09/16 09:31:40;;;;;;;4.05;1.45;;;;;;;24.10;46.10;101888.13;5065612;28;20035;-66
2021/09/16 09:34:26;;;;;;;3.00;1.33;;;;;;;23.94;46.77;101897.56;5066438;28;20083;-70
2021/09/16 09:37:14;;;;;;;7.50;1.50;;;;;;;24.91;44.09;101895.53;5046896;28;20025;-62
2021/09/16 09:39:42;;;;;;;4.50;1.30;;;;;;;24.55;47.28;101898.63;5063768;28;20078;-65
2021/09/16 09:42:20;;;;;;;3.83;1.48;;;;;;;25.00;43.94;101895.56;5066065;28;20121;-65
2021/09/16 09:44:46;;;;;;;3.47;1.50;;;;;;;25.67;42.32;101889.56;5063654;28;20036;-70
2021/09/16 09:47:13;;;;;;;4.65;1.73;;;;;;;24.96;43.14;101894.13;5059653;28;20025;-61
2021/09/16 09:49:39;;;;;;;4.05;1.40;;;;;;;25.27;45.46;101902.19;5046627;28;20040;-65
2021/09/16 09:52:06;;;;;;;2.42;1.40;;;;;;;25.55;42.22;101902.41;5053632;28;20050;-67
2021/09/16 09:54:37;;;;;;;5.93;2.03;;;;;;;25.95;41.47;101895.97;5053323;28;20051;-62
2021/09/16 09:57:14;;;;;;;2.92;1.90;;;;;;;25.25;41.43;101901.47;5047423;28;20105;-60
2021/09/16 10:00:10;;;;;;;3.58;1.40;;;;;;;25.24;42.41;101904.31;5062673;28;20465;-62
2021/09/16 10:02:38;;;;;;;2.72;1.60;;;;;;;25.53;41.67;101904.41;5045666;28;20037;-61
2021/09/16 10:05:17;;;;;;;3.63;1.50;;;;;;;25.62;42.15;101906.25;5051814;28;20112;-63
2021/09/16 10:07:43;;;;;;;3.40;1.63;;;;;;;25.96;40.66;101915.81;5067058;28;20449;-62
2021/09/16 10:10:12;;;;;;;2.45;1.40;;;;;;;25.77;41.32;101905.81;5062110;28;20113;-64
2021/09/16 10:12:38;;;;;;;3.17;1.70;;;;;;;26.38;39.83;101909.22;5050567;28;20019;-63
2021/09/16 10:15:23;;;;;;;4.55;1.77;;;;;;;26.72;38.22;101901.38;5065510;28;20025;-61
2021/09/16 10:17:52;;;;;;;3.90;1.60;;;;;;;26.67;38.83;101906.41;5063969;28;20029;-61
2021/09/16 10:20:19;;;;;;;3.92;1.50;;;;;;;25.95;40.73;101897.84;5065973;28;20079;-59
2021/09/16 10:22:48;;;;;;;2.35;1.30;;;;;;;26.05;40.64;101898.72;5066496;28;20040;-62
2021/09/16 10:25:17;;;;;;;4.30;1.80;;;;;;;26.75;38.21;101902.97;5065683;28;20496;-63
2021/09/16 10:27:46;;;;;;;4.28;1.70;;;;;;;26.57;39.01;101890.13;5059332;28;20029;-67
2021/09/16 10:30:44;;;;;;;4.53;1.60;;;;;;;26.22;39.03;101894.38;5057444;28;20373;-62
2021/09/16 10:33:27;;;;;;;5.00;1.80;;;;;;;26.06;39.87;101894.13;5033361;28;20350;-62
2021/09/16 10:35:58;;;;;;;4.40;1.63;;;;;;;26.77;38.53;101896.38;5049338;28;20096;-62
2021/09/16 10:38:24;;;;;;;3.45;1.55;;;;;;;26.90;38.84;101897.91;5041174;28;20037;-59
2021/09/16 10:41:14;;;;;;;3.47;1.60;;;;;;;27.49;37.74;101903.84;5043501;28;20025;-62
2021/09/16 10:43:42;;;;;;;3.28;1.40;;;;;;;27.84;36.47;101904.00;5047099;28;20033;-62
2021/09/16 10:46:32;;;;;;;2.53;1.35;;;;;;;27.36;36.41;101906.91;5044248;28;20025;-59
2021/09/16 10:49:21;;;;;;;3.50;1.95;;;;;;;27.69;36.15;101903.72;5048366;28;20105;-61
2021/09/16 10:51:48;;;;;;;3.20;1.85;;;;;;;27.52;36.05;101910.84;5050922;28;20201;-61
2021/09/16 10:54:23;;;;;;;2.63;1.73;;;;;;;26.42;38.41;101911.50;5044907;28;20155;-60
2021/09/16 10:56:59;;;;;;;3.50;1.90;;;;;;;26.11;39.41;101913.56;5044266;28;20028;-59
2021/09/16 10:59:47;;;;;;;5.78;1.73;;;;;;;25.57;40.56;101911.25;5038634;28;20297;-64
2021/09/16 11:02:15;;;;;;;3.58;1.50;;;;;;;25.45;41.36;101909.66;5034938;28;20040;-59
2021/09/16 11:05:12;;;;;;;3.95;1.95;;;;;;;26.15;39.95;101907.69;5035616;28;20021;-60
2021/09/16 11:07:38;;;;;;;1.83;1.55;;;;;;;27.05;37.68;101912.69;5042908;28;20440;-61
2021/09/16 11:10:16;;;;;;;4.13;2.13;;;;;;;26.11;39.38;101914.44;5042707;28;20040;-61
2021/09/16 11:12:48;;;;;;;4.30;1.50;;;;;;;25.42;40.59;101904.53;5044908;28;20036;-65
2021/09/16 11:15:26;;;;;;;4.35;1.65;;;;;;;25.50;40.31;101896.56;5038984;28;20033;-61
2021/09/16 11:18:11;;;;;;;2.47;1.60;;;;;;;25.63;40.71;101904.41;5031022;28;20025;-59
2021/09/16 11:20:38;;;;;;;3.53;1.70;;;;;;;26.20;41.09;101918.09;5040165;28;20168;-60
2021/09/16 11:23:04;;;;;;;2.42;1.35;;;;;;;26.90;38.52;101904.19;5033854;28;20076;-59
2021/09/16 11:25:38;;;;;;;6.07;1.95;;;;;;;27.21;38.46;101909.28;5045042;28;20378;-59